^^
Grace C. Lehan Memorial Weather Station Historical Data
Daily Summary for April 16, 2021 Units:  English    Metric   Both
Daily Weekly Monthly Yearly
  High: Low: Average:
Temperature: 94.5 °F 73 °F 82.4 °F
Dew Point: 78.1 °F 71.3 °F 74.2 °F
Humidity: 96% 52.9% 78%
Wind Speed: 9.2mph 0mph 0.9mph
Wind Gust: 25mph - -
Wind- - WSW
Pressure: 29.96 in 29.90 in -
Precipitation: 0.11 in    
 
 
Tabular Data for April 16, 2021
Time Temperature Dew Point Pressure Wind Wind Speed Wind Gust Humidity Rainfall Rate (Hourly) solar
00:00 76.6 °F 72.4 °F 29.95 in Calm     87% 0.00 in 0 W/m2
00:09 76.4 °F 72.3 °F 29.95 in Calm     87% 0.00 in 0 W/m2
00:14 76.3 °F 72.2 °F 29.95 in Calm     87% 0.00 in 0 W/m2
00:19 76.2 °F 72.1 °F 29.95 in Calm     87% 0.00 in 0 W/m2
00:24 76.1 °F 72.2 °F 29.95 in Calm     87.6% 0.00 in 0 W/m2
00:29 76 °F 72.2 °F 29.94 in Calm     88% 0.00 in 0 W/m2
00:34 76 °F 72.2 °F 29.94 in Calm     88% 0.00 in 0 W/m2
00:39 75.9 °F 72.1 °F 29.94 in Calm     88% 0.00 in 0 W/m2
00:44 75.8 °F 72 °F 29.95 in Calm     88% 0.00 in 0 W/m2
00:49 75.7 °F 72 °F 29.94 in Calm     88.3% 0.00 in 0 W/m2
00:54 75.6 °F 72.2 °F 29.95 in Calm     89% 0.00 in 0 W/m2
00:59 75.5 °F 72 °F 29.94 in Calm     89% 0.00 in 0 W/m2
01:04 75.4 °F 72 °F 29.95 in Calm     89% 0.00 in 0 W/m2
01:09 75.4 °F 71.9 °F 29.94 in Calm     89% 0.00 in 0 W/m2
01:14 75.3 °F 72 °F 29.95 in Calm     89.6% 0.00 in 0 W/m2
01:19 75.2 °F 72.1 °F 29.94 in Calm     90% 0.00 in 0 W/m2
01:24 75.2 °F 72 °F 29.94 in Calm     90% 0.00 in 0 W/m2
01:29 75.1 °F 72 °F 29.95 in Calm     90% 0.00 in 0 W/m2
01:34 75.1 °F 72 °F 29.95 in Calm     90% 0.00 in 0 W/m2
01:39 75 °F 71.9 °F 29.94 in Calm     90% 0.00 in 0 W/m2
01:44 75 °F 71.9 °F 29.94 in Calm     90.2% 0.00 in 0 W/m2
01:49 74.9 °F 72.1 °F 29.94 in Calm     91% 0.00 in 0 W/m2
01:54 74.9 °F 72.1 °F 29.94 in Calm     91% 0.00 in 0 W/m2
01:59 74.8 °F 72 °F 29.94 in Calm     91% 0.00 in 0 W/m2
02:04 74.8 °F 72 °F 29.94 in Calm     91% 0.00 in 0 W/m2
02:09 74.7 °F 71.9 °F 29.94 in Calm     91% 0.00 in 0 W/m2
02:14 74.6 °F 71.8 °F 29.94 in Calm     91% 0.00 in 0 W/m2
02:19 74.6 °F 71.8 °F 29.94 in Calm     91% 0.00 in 0 W/m2
02:24 74.5 °F 71.7 °F 29.94 in Calm     91% 0.00 in 0 W/m2
02:29 74.5 °F 71.7 °F 29.94 in Calm     91% 0.00 in 0 W/m2
02:34 74.5 °F 72 °F 29.94 in Calm     91.8% 0.00 in 0 W/m2
02:39 74.5 °F 72 °F 29.94 in Calm     92% 0.00 in 0 W/m2
02:44 74.4 °F 72 °F 29.94 in Calm     92% 0.00 in 0 W/m2
02:49 74.4 °F 71.9 °F 29.94 in Calm     92% 0.00 in 0 W/m2
02:54 74.4 °F 71.9 °F 29.94 in Calm     92% 0.00 in 0 W/m2
02:59 74.4 °F 71.9 °F 29.94 in Calm     92% 0.00 in 0 W/m2
03:04 74.3 °F 71.8 °F 29.94 in Calm     92% 0.00 in 0 W/m2
03:09 74.3 °F 72.1 °F 29.94 in Calm     92.8% 0.00 in 0 W/m2
03:14 74.3 °F 72.2 °F 29.94 in Calm     93% 0.00 in 0 W/m2
03:19 74.3 °F 72.1 °F 29.94 in Calm     93% 0.00 in 0 W/m2
03:24 74.2 °F 72.1 °F 29.94 in Calm     93% 0.00 in 0 W/m2
03:29 74.2 °F 72.1 °F 29.94 in Calm     93% 0.00 in 0 W/m2
03:34 74.2 °F 72.1 °F 29.94 in Calm     93% 0.00 in 0 W/m2
03:39 74.2 °F 72.1 °F 29.94 in Calm     93% 0.00 in 0 W/m2
03:44 74.2 °F 72 °F 29.94 in Calm     93% 0.00 in 0 W/m2
03:49 74.1 °F 72 °F 29.94 in Calm     93% 0.00 in 0 W/m2
03:54 74.1 °F 71.9 °F 29.94 in Calm     93% 0.00 in 0 W/m2
03:59 74 °F 71.9 °F 29.94 in Calm     93% 0.00 in 0 W/m2
04:00 74 °F 71.8 °F 29.94 in Calm     93% 0.00 in 0 W/m2
04:09 73.9 °F 71.7 °F 29.94 in Calm     93% 0.00 in 0 W/m2
04:14 73.8 °F 71.8 °F 29.94 in Calm     93.2% 0.00 in 0 W/m2
04:19 73.8 °F 72 °F 29.94 in Calm     94% 0.00 in 0 W/m2
04:24 73.7 °F 71.9 °F 29.93 in Calm     94% 0.00 in 0 W/m2
04:29 73.7 °F 71.9 °F 29.93 in Calm     94% 0.00 in 0 W/m2
04:34 73.7 °F 71.8 °F 29.93 in Calm     94% 0.00 in 0 W/m2
04:39 73.6 °F 71.7 °F 29.94 in Calm     94% 0.00 in 0 W/m2
04:44 73.5 °F 71.7 °F 29.94 in Calm     94% 0.00 in 0 W/m2
04:49 73.5 °F 71.7 °F 29.94 in Calm     94% 0.00 in 0 W/m2
04:54 73.4 °F 71.6 °F 29.93 in Calm     94% 0.00 in 0 W/m2
04:59 73.4 °F 71.5 °F 29.93 in Calm     94% 0.00 in 0 W/m2
05:04 73.3 °F 71.5 °F 29.93 in Calm     94% 0.00 in 0 W/m2
05:09 73.3 °F 71.5 °F 29.94 in Calm     94% 0.00 in 0 W/m2
05:14 73.3 °F 71.5 °F 29.94 in Calm     94% 0.00 in 0 W/m2
05:19 73.2 °F 71.4 °F 29.94 in Calm     94% 0.00 in 0 W/m2
05:24 73.1 °F 71.3 °F 29.94 in Calm     94% 0.00 in 0 W/m2
05:29 73.1 °F 71.5 °F 29.94 in Calm     94.6% 0.00 in 0 W/m2
05:34 73.1 °F 71.6 °F 29.94 in Calm     95% 0.00 in 0 W/m2
05:39 73 °F 71.5 °F 29.94 in Calm     95% 0.00 in 0 W/m2
05:44 73 °F 71.5 °F 29.94 in Calm     95% 0.00 in 5 W/m2
05:49 73 °F 71.5 °F 29.94 in Calm     95% 0.00 in 7 W/m2
05:54 73 °F 71.5 °F 29.94 in Calm     95% 0.00 in 9 W/m2
05:59 73 °F 71.5 °F 29.94 in Calm     95% 0.00 in 12 W/m2
06:04 73.1 °F 71.6 °F 29.94 in Calm     95% 0.00 in 14 W/m2
06:09 73.1 °F 71.6 °F 29.94 in Calm     95% 0.00 in 18 W/m2
06:14 73.1 °F 71.6 °F 29.94 in Calm     95% 0.00 in 21 W/m2
06:19 73.1 °F 71.6 °F 29.94 in Calm     95% 0.00 in 28 W/m2
06:24 73.2 °F 71.6 °F 29.94 in Calm     95% 0.00 in 33 W/m2
06:29 73.2 °F 71.7 °F 29.94 in Calm     95% 0.00 in 40 W/m2
06:34 73.3 °F 71.8 °F 29.94 in Calm     95% 0.00 in 47 W/m2
06:39 73.5 °F 71.9 °F 29.94 in Calm     95% 0.00 in 56 W/m2
06:44 73.7 °F 72.5 °F 29.95 in Calm     96% 0.00 in 62 W/m2
06:49 73.9 °F 72.7 °F 29.95 in Calm     96% 0.00 in 69 W/m2
06:54 74.1 °F 72.9 °F 29.95 in Calm     96% 0.00 in 76 W/m2
06:59 74.4 °F 73.2 °F 29.95 in Calm     96% 0.00 in 77 W/m2
07:04 74.8 °F 73.6 °F 29.95 in Calm     96% 0.00 in 79 W/m2
07:09 75.2 °F 74 °F 29.95 in Calm     96% 0.00 in 81 W/m2
07:14 75.6 °F 74.4 °F 29.95 in Calm     96% 0.00 in 84 W/m2
07:19 76.2 °F 74.7 °F 29.95 in Calm     95.2% 0.00 in 90 W/m2
07:24 76.7 °F 75.2 °F 29.96 in Calm     95% 0.00 in 114 W/m2
07:29 77.2 °F 75.2 °F 29.96 in Calm     93.6% 0.00 in 214 W/m2
07:34 77.6 °F 75.1 °F 29.96 in Calm     91.7% 0.00 in 232 W/m2
07:39 78.1 °F 74.9 °F 29.96 in Calm     89.8% 0.00 in 246 W/m2
07:44 78.6 °F 74.9 °F 29.95 in Calm     88.4% 0.00 in 274 W/m2
07:49 79.1 °F 75 °F 29.96 in Calm     87.2% 0.00 in 295 W/m2
07:54 79.6 °F 75 °F 29.96 in Calm     85.8% 0.00 in 311 W/m2
07:59 80.3 °F 75.3 °F 29.96 in Calm   1 mph 85% 0.00 in 327 W/m2
08:04 80.9 °F 75.4 °F 29.95 in WSW 0.5 mph 1 mph 83.5% 0.00 in 327 W/m2
08:09 81.4 °F 75.4 °F 29.96 in Calm     82% 0.00 in 338 W/m2
08:14 81.9 °F 75.7 °F 29.96 in Calm     81.5% 0.00 in 334 W/m2
08:19 82.3 °F 75.7 °F 29.96 in Calm     80.4% 0.00 in 299 W/m2
08:24 82.5 °F 75.8 °F 29.96 in Calm   2 mph 80.1% 0.00 in 385 W/m2
08:29 82.8 °F 75.9 °F 29.96 in Calm   2 mph 79.6% 0.00 in 397 W/m2
08:34 83.2 °F 76 °F 29.96 in Calm   2 mph 79.2% 0.00 in 410 W/m2
08:39 83.5 °F 75.9 °F 29.95 in Calm   1 mph 77.9% 0.00 in 399 W/m2
08:44 83.7 °F 75.7 °F 29.95 in Calm   1 mph 77% 0.00 in 387 W/m2
08:49 83.8 °F 76.1 °F 29.95 in Calm   1 mph 77.7% 0.00 in 397 W/m2
08:54 83.9 °F 76 °F 29.95 in WSW 0.1 mph 3 mph 77.2% 0.00 in 392 W/m2
08:59 84 °F 76.1 °F 29.95 in WSW 0.1 mph 3 mph 77.2% 0.00 in 475 W/m2
09:04 84.1 °F 76.3 °F 29.95 in WSW 0.2 mph 3 mph 77.4% 0.00 in 517 W/m2
09:09 84.5 °F 76.4 °F 29.95 in Calm   3 mph 76.6% 0.00 in 522 W/m2
09:14 84.9 °F 76.5 °F 29.95 in Calm   3 mph 76% 0.00 in 538 W/m2
09:19 85.3 °F 76.5 °F 29.95 in Calm   3 mph 75% 0.00 in 554 W/m2
09:24 85.8 °F 76.8 °F 29.95 in Calm   3 mph 74.6% 0.00 in 570 W/m2
09:29 86.2 °F 76.6 °F 29.95 in Calm   3 mph 73.2% 0.00 in 577 W/m2
09:34 86.5 °F 77 °F 29.95 in WSW 0.1 mph 3 mph 73.5% 0.00 in 592 W/m2
09:39 86.8 °F 76.9 °F 29.95 in Calm   2 mph 72.6% 0.00 in 612 W/m2
09:44 86.9 °F 76.8 °F 29.95 in Calm   2 mph 71.8% 0.00 in 615 W/m2
09:49 87.4 °F 77.7 °F 29.95 in Calm   2 mph 73% 0.00 in 631 W/m2
09:54 87.9 °F 77.3 °F 29.94 in WSW 0.2 mph 3 mph 70.8% 0.00 in 640 W/m2
09:59 88.5 °F 77.3 °F 29.94 in WSW 1.1 mph 4 mph 69.7% 0.00 in 656 W/m2
10:04 88.9 °F 77.4 °F 29.94 in WSW 0.2 mph 4 mph 69% 0.00 in 670 W/m2
10:09 89.3 °F 77.9 °F 29.94 in Calm   3 mph 69.2% 0.00 in 677 W/m2
10:14 89.8 °F 78 °F 29.94 in WSW 0.1 mph 3 mph 68.4% 0.00 in 691 W/m2
10:19 90.1 °F 77.5 °F 29.94 in WSW 0.6 mph 4 mph 66.7% 0.00 in 701 W/m2
10:24 90.4 °F 78.1 °F 29.94 in WSW 0.1 mph 4 mph 67.3% 0.00 in 721 W/m2
10:29 90.7 °F 78 °F 29.94 in WSW 0.9 mph 4 mph 66.5% 0.00 in 738 W/m2
10:34 90.8 °F 77.2 °F 29.94 in WSW 0.9 mph 4 mph 64.5% 0.00 in 754 W/m2
10:39 91 °F 77.4 °F 29.94 in WSW 0.2 mph 4 mph 64.6% 0.00 in 758 W/m2
10:44 91.3 °F 77 °F 29.94 in WSW 1.7 mph 5 mph 63.1% 0.00 in 763 W/m2
10:49 91.5 °F 77.1 °F 29.94 in WSW 0.6 mph 5 mph 62.9% 0.00 in 765 W/m2
10:54 91.5 °F 77.1 °F 29.94 in WSW 0.2 mph 5 mph 62.8% 0.00 in 768 W/m2
10:59 91.6 °F 77.7 °F 29.94 in SW 0.9 mph 7 mph 64.1% 0.00 in 780 W/m2
11:04 91.5 °F 76.9 °F 29.94 in SW 0.5 mph 7 mph 62.6% 0.00 in 786 W/m2
11:09 91.5 °F 77.3 °F 29.94 in SW 1.2 mph 4 mph 63.4% 0.00 in 795 W/m2
11:14 91.8 °F 76.6 °F 29.94 in SW 1 mph 4 mph 61.4% 0.00 in 803 W/m2
11:19 92.1 °F 76.5 °F 29.94 in SW 1.3 mph 5 mph 60.6% 0.00 in 807 W/m2
11:24 92.3 °F 76.9 °F 29.94 in WSW 2.1 mph 5 mph 61% 0.00 in 805 W/m2
11:29 92.6 °F 77.5 °F 29.94 in WSW 1.4 mph 6 mph 61.7% 0.00 in 810 W/m2
11:34 92.7 °F 77 °F 29.94 in WSW 1.7 mph 6 mph 60.4% 0.00 in 816 W/m2
11:39 92.8 °F 76.8 °F 29.94 in WSW 0.5 mph 5 mph 59.7% 0.00 in 814 W/m2
11:44 92.8 °F 77.1 °F 29.94 in WSW 1.5 mph 5 mph 60.4% 0.00 in 823 W/m2
11:49 92.8 °F 77.3 °F 29.93 in WSW 0.6 mph 5 mph 60.9% 0.00 in 831 W/m2
11:54 92.8 °F 77.1 °F 29.93 in SW 1.1 mph 7 mph 60.4% 0.00 in 840 W/m2
11:59 93 °F 77 °F 29.93 in SW 1.1 mph 7 mph 60% 0.00 in 840 W/m2
12:00 93 °F 76.6 °F 29.93 in Calm   7 mph 59% 0.00 in 826 W/m2
12:09 92.7 °F 75.7 °F 29.94 in SW 1.5 mph 4 mph 58% 0.00 in 856 W/m2
12:14 92.7 °F 76.3 °F 29.94 in WSW 1 mph 6 mph 59% 0.00 in 846 W/m2
12:19 92.9 °F 76.7 °F 29.94 in WSW 1.8 mph 6 mph 59.5% 0.00 in 868 W/m2
12:24 93.1 °F 76.7 °F 29.94 in West 1.3 mph 6 mph 59% 0.00 in 865 W/m2
12:29 93.3 °F 76.3 °F 29.94 in WSW 0.6 mph 6 mph 57.9% 0.00 in 870 W/m2
12:34 93.2 °F 76.2 °F 29.93 in WSW 2 mph 6 mph 57.8% 0.00 in 877 W/m2
12:39 93.1 °F 75.8 °F 29.93 in West 2.5 mph 6 mph 57.4% 0.00 in 875 W/m2
12:44 93 °F 75.7 °F 29.93 in SW 3.2 mph 11 mph 57.5% 0.00 in 872 W/m2
12:49 93 °F 75.4 °F 29.93 in SW 2.3 mph 11 mph 56.8% 0.00 in 874 W/m2
12:54 93.1 °F 75.7 °F 29.93 in WSW 1.9 mph 11 mph 57.2% 0.00 in 889 W/m2
12:59 93.1 °F 75.5 °F 29.93 in WSW 1.8 mph 11 mph 56.8% 0.00 in 933 W/m2
13:04 93.3 °F 75.7 °F 29.93 in West 1.6 mph 11 mph 56.7% 0.00 in 933 W/m2
13:09 93.4 °F 76.1 °F 29.94 in WSW 2.6 mph 6 mph 57.3% 0.00 in 979 W/m2
13:14 93.5 °F 76.3 °F 29.94 in SW 2.8 mph 6 mph 57.6% 0.00 in 956 W/m2
13:19 93.4 °F 75.5 °F 29.93 in SW 2.9 mph 7 mph 56.3% 0.00 in 998 W/m2
13:24 93 °F 74.9 °F 29.94 in SW 1.9 mph 7 mph 55.8% 0.00 in 998 W/m2
13:29 92.7 °F 75.1 °F 29.94 in WSW 1.9 mph 8 mph 56.7% 0.00 in 909 W/m2
13:34 92.7 °F 76.5 °F 29.94 in West 3 mph 8 mph 59.5% 0.00 in 900 W/m2
13:39 92.8 °F 75.9 °F 29.93 in WSW 1.7 mph 8 mph 58.1% 0.00 in 928 W/m2
13:44 93 °F 75.6 °F 29.93 in WSW 3.3 mph 8 mph 57.3% 0.00 in 912 W/m2
13:49 93.2 °F 75.7 °F 29.93 in WSW 1.5 mph 8 mph 57.1% 0.00 in 932 W/m2
13:54 93.5 °F 76.5 °F 29.93 in WSW 1.9 mph 8 mph 57.9% 0.00 in 916 W/m2
13:59 93.9 °F 76.4 °F 29.93 in SW 2.5 mph 8 mph 57% 0.00 in 898 W/m2
14:04 94.3 °F 76 °F 29.93 in WSW 1.8 mph 8 mph 55.7% 0.00 in 895 W/m2
14:09 94.4 °F 75.4 °F 29.93 in SW 3 mph 7 mph 54.3% 0.00 in 923 W/m2
14:14 94.5 °F 75.7 °F 29.92 in SSW 2.1 mph 7 mph 54.8% 0.00 in 923 W/m2
14:19 94.5 °F 75.2 °F 29.92 in WSW 2 mph 7 mph 53.9% 0.00 in 900 W/m2
14:24 94.2 °F 75.5 °F 29.92 in West 2 mph 7 mph 55% 0.00 in 248 W/m2
14:29 93.9 °F 75.9 °F 29.92 in WSW 1.4 mph 7 mph 56.2% 0.00 in 898 W/m2
14:34 93.7 °F 76.1 °F 29.92 in SW 1.4 mph 7 mph 56.8% 0.00 in 898 W/m2
14:39 93.7 °F 76.2 °F 29.92 in WSW 2.2 mph 9 mph 57% 0.00 in 898 W/m2
14:44 93.8 °F 75.7 °F 29.92 in WSW 1.7 mph 9 mph 55.9% 0.00 in 835 W/m2
14:49 93.9 °F 76.2 °F 29.92 in SW 2 mph 9 mph 56.6% 0.00 in 835 W/m2
14:54 94.2 °F 75.7 °F 29.92 in SW 3.3 mph 9 mph 55.3% 0.00 in 849 W/m2
14:59 94.4 °F 75.8 °F 29.92 in SW 2.3 mph 9 mph 55.1% 0.00 in 821 W/m2
15:04 94.4 °F 75.9 °F 29.92 in WSW 2.3 mph 11 mph 55.3% 0.00 in 812 W/m2
15:09 94.3 °F 76.3 °F 29.91 in WSW 2.1 mph 12 mph 56.2% 0.00 in 812 W/m2
15:14 94.3 °F 75.3 °F 29.91 in SW 2.5 mph 12 mph 54.3% 0.00 in 819 W/m2
15:19 94 °F 75.2 °F 29.91 in WSW 3.2 mph 12 mph 54.6% 0.00 in 788 W/m2
15:24 93.7 °F 75.4 °F 29.91 in WSW 3.3 mph 12 mph 55.5% 0.00 in 826 W/m2
15:29 93.5 °F 75.6 °F 29.91 in SW 1.4 mph 12 mph 56.2% 0.00 in 782 W/m2
15:34 93.6 °F 75.7 °F 29.91 in West 1.7 mph 12 mph 56.4% 0.00 in 759 W/m2
15:39 93.8 °F 76.4 °F 29.91 in West 1.7 mph 7 mph 57.2% 0.00 in 740 W/m2
15:44 94 °F 75.7 °F 29.90 in West 2.4 mph 9 mph 55.5% 0.00 in 708 W/m2
15:49 94 °F 75.6 °F 29.90 in SW 3.3 mph 13 mph 55.5% 0.00 in 773 W/m2
15:54 94 °F 75.5 °F 29.90 in WSW 2.5 mph 13 mph 55.2% 0.00 in 715 W/m2
15:59 94.2 °F 75.5 °F 29.90 in WSW 1.9 mph 13 mph 54.9% 0.00 in 696 W/m2
16:00 94.2 °F 75.6 °F 29.90 in WNW 4 mph 13 mph 55% 0.00 in 673 W/m2
16:09 94.3 °F 75.1 °F 29.91 in SW 3 mph 9 mph 54% 0.00 in 689 W/m2
16:14 94.4 °F 75.1 °F 29.91 in SW 3.4 mph 12 mph 53.8% 0.00 in 654 W/m2
16:19 94 °F 74.2 °F 29.91 in SW 1.7 mph 12 mph 52.9% 0.00 in 200 W/m2
16:24 93.7 °F 75.3 °F 29.91 in WSW 2 mph 12 mph 55.3% 0.00 in 193 W/m2
16:29 93.6 °F 75.7 °F 29.91 in WSW 3.6 mph 12 mph 56.3% 0.00 in 193 W/m2
16:34 92.8 °F 74.7 °F 29.92 in WNW 7.8 mph 16 mph 55.8% 0.00 in 76 W/m2
16:39 90.6 °F 73.2 °F 29.93 in WNW 9.2 mph 25 mph 56.7% 0.00 in 49 W/m2
16:44 87.9 °F 72.1 °F 29.93 in WNW 9 mph 25 mph 59.5% 0.00 in 37 W/m2
16:49 85.5 °F 72.4 °F 29.93 in WNW 7 mph 25 mph 65% 0.00 in 23 W/m2
16:54 83.3 °F 73.6 °F 29.93 in West 5.4 mph 25 mph 72.8% 0.06 in 23 W/m2
16:59 81.4 °F 73.6 °F 29.93 in West 1.6 mph 25 mph 77.2% 0.09 in 28 W/m2
17:04 80.1 °F 73.4 °F 29.93 in WNW 0.2 mph 25 mph 80% 0.10 in 26 W/m2
17:09 79.2 °F 73.6 °F 29.92 in WNW 0.3 mph 3 mph 83% 0.10 in 18 W/m2
17:14 78.7 °F 73.5 °F 29.93 in WNW 0.5 mph 4 mph 84.4% 0.10 in 18 W/m2
17:19 78.2 °F 73.4 °F 29.93 in West 3.3 mph 12 mph 85.4% 0.10 in 21 W/m2
17:24 77.6 °F 73.1 °F 29.93 in West 6 mph 14 mph 86% 0.10 in 23 W/m2
17:29 77 °F 72.6 °F 29.93 in West 4.1 mph 14 mph 86.5% 0.10 in 25 W/m2
17:34 76.6 °F 72.6 °F 29.93 in West 2.1 mph 14 mph 87.5% 0.10 in 39 W/m2
17:39 76.4 °F 72.8 °F 29.93 in WSW 1.9 mph 10 mph 88.4% 0.11 in 76 W/m2
17:44 76.4 °F 73.1 °F 29.93 in WSW 0.1 mph 10 mph 89.6% 0.11 in 81 W/m2
17:49 76.6 °F 73.7 °F 29.93 in WSW 0.4 mph 10 mph 90.7% 0.11 in 93 W/m2
17:54 76.8 °F 74 °F 29.92 in WSW 0.5 mph 10 mph 91% 0.11 in 105 W/m2
17:59 77 °F 74.2 °F 29.92 in Calm   10 mph 91% 0.11 in 105 W/m2
18:04 77.1 °F 74.3 °F 29.93 in WSW 0.2 mph 10 mph 91% 0.11 in 98 W/m2
18:09 77.3 °F 74.4 °F 29.93 in Calm   5 mph 91% 0.02 in 98 W/m2
18:14 77.3 °F 74.5 °F 29.93 in WSW 0.1 mph 5 mph 90.9% 0.02 in 93 W/m2
18:19 77.3 °F 74.1 °F 29.93 in Calm   5 mph 90% 0.02 in 74 W/m2
18:24 77.2 °F 74 °F 29.94 in Calm   5 mph 89.7% 0.02 in 63 W/m2
18:29 77.3 °F 74 °F 29.94 in Calm   5 mph 89.7% 0.02 in 56 W/m2
18:34 77.3 °F 73.8 °F 29.94 in Calm   5 mph 89% 0.02 in 54 W/m2
18:39 77.4 °F 73.9 °F 29.94 in Calm     89% 0.01 in 56 W/m2
18:44 77.6 °F 74.3 °F 29.93 in Calm     89.6% 0.01 in 56 W/m2
18:49 77.8 °F 74.5 °F 29.93 in Calm     89.4% 0.01 in 54 W/m2
18:54 77.9 °F 74.4 °F 29.94 in Calm     89% 0.01 in 53 W/m2
18:59 77.9 °F 74.4 °F 29.94 in Calm     89% 0.01 in 54 W/m2
19:04 77.8 °F 74 °F 29.94 in Calm     88% 0.01 in 54 W/m2
19:09 77.8 °F 73.9 °F 29.94 in Calm     88% 0.00 in 58 W/m2
19:14 77.7 °F 73.9 °F 29.95 in Calm     88.1% 0.00 in 60 W/m2
19:19 77.7 °F 74.2 °F 29.96 in Calm     88.8% 0.00 in 60 W/m2
19:24 77.7 °F 73.7 °F 29.96 in Calm     87.6% 0.00 in 58 W/m2
19:29 77.6 °F 73.5 °F 29.95 in Calm     87% 0.00 in 49 W/m2
19:34 77.7 °F 73.5 °F 29.95 in Calm     87% 0.00 in 42 W/m2
19:38 77.7 °F 73.5 °F 29.95 in Calm     87% 0.00 in 42 W/m2
Hartford County Weather
Compliments of Weather Underground - 4 mb